createdAt,value
2018-12-24T00:00:15.190Z,5.10
2018-12-24T00:18:49.308Z,5.10
2018-12-24T00:21:16.540Z,5.00
2018-12-24T00:23:43.815Z,4.70
2018-12-24T00:26:10.545Z,4.80
2018-12-24T00:28:37.005Z,4.90
2018-12-24T00:31:03.617Z,5.00
2018-12-24T00:33:31.391Z,5.00
2018-12-24T00:35:58.237Z,4.70
2018-12-24T00:38:24.987Z,4.80
2018-12-24T00:40:52.069Z,4.60
2018-12-24T00:43:18.906Z,4.30
2018-12-24T00:45:46.307Z,4.30
2018-12-24T00:48:13.785Z,4.50
2018-12-24T00:50:41.275Z,4.20
2018-12-24T00:53:09.457Z,3.70
2018-12-24T00:55:35.950Z,3.90
2018-12-24T00:58:03.603Z,4.10
2018-12-24T01:03:07.764Z,3.40
2018-12-24T01:05:35.735Z,3.20
2018-12-24T01:08:02.825Z,3.60
2018-12-24T01:13:06.311Z,3.50
2018-12-24T01:15:33.849Z,3.50
2018-12-24T01:18:00.638Z,3.70
2018-12-24T01:20:33.844Z,3.70
2018-12-24T01:23:01.086Z,3.60
2018-12-24T01:25:27.671Z,3.80
2018-12-24T01:27:54.826Z,3.80
2018-12-24T01:30:22.257Z,3.20
2018-12-24T01:35:23.896Z,2.90
2018-12-24T01:37:50.548Z,2.90
2018-12-24T01:40:17.028Z,3.30
2018-12-24T01:42:43.979Z,3.60
2018-12-24T01:45:11.835Z,3.50
2018-12-24T01:47:38.814Z,3.60
2018-12-24T01:50:05.315Z,3.70
2018-12-24T01:52:31.907Z,3.90
2018-12-24T01:54:59.178Z,3.60
2018-12-24T01:57:25.696Z,3.80
2018-12-24T01:59:52.743Z,3.80
2018-12-24T02:02:19.854Z,4.10
2018-12-24T02:04:46.873Z,4.00
2018-12-24T02:07:14.154Z,4.10
2018-12-24T02:09:40.842Z,4.10
2018-12-24T02:12:07.691Z,4.10
2018-12-24T02:14:34.166Z,4.00
2018-12-24T02:17:01.132Z,3.90
2018-12-24T02:19:27.575Z,4.00
2018-12-24T02:21:54.164Z,4.00
2018-12-24T02:24:20.619Z,4.00
2018-12-24T02:26:47.156Z,4.10
2018-12-24T02:29:13.643Z,3.90
2018-12-24T02:31:46.779Z,3.70
2018-12-24T02:34:13.757Z,4.00
2018-12-24T02:36:42.215Z,4.10
2018-12-24T02:39:09.070Z,3.80
2018-12-24T02:41:36.267Z,3.70
2018-12-24T02:44:02.726Z,3.80
2018-12-24T02:46:30.516Z,3.80
2018-12-24T02:48:57.081Z,3.80
2018-12-24T02:51:26.693Z,3.70
2018-12-24T02:53:53.209Z,3.90
2018-12-24T02:56:20.354Z,4.10
2018-12-24T02:58:46.834Z,4.20
2018-12-24T03:01:13.348Z,4.20
2018-12-24T03:03:40.530Z,4.30
2018-12-24T03:06:07.399Z,4.00
2018-12-24T03:08:34.893Z,4.00
2018-12-24T03:11:02.126Z,4.10
2018-12-24T03:13:29.329Z,4.30
2018-12-24T03:15:56.725Z,4.20
2018-12-24T03:18:23.239Z,3.90
2018-12-24T03:20:49.755Z,3.80
2018-12-24T03:23:17.315Z,4.00
2018-12-24T03:25:43.792Z,4.20
2018-12-24T03:28:10.264Z,4.10
2018-12-24T03:30:37.648Z,4.30
2018-12-24T03:33:04.109Z,4.50
2018-12-24T03:35:31.236Z,4.60
2018-12-24T03:37:58.037Z,4.40
2018-12-24T03:40:25.346Z,4.60
2018-12-24T03:42:52.471Z,4.60
2018-12-24T03:45:19.978Z,4.60
2018-12-24T03:47:46.557Z,4.40
2018-12-24T03:50:13.021Z,4.10
2018-12-24T03:52:41.997Z,4.10
2018-12-24T03:55:08.521Z,4.20
2018-12-24T03:57:35.026Z,4.30
2018-12-24T04:00:01.610Z,4.30
2018-12-24T04:02:29.057Z,4.50
2018-12-24T04:04:56.459Z,4.60
2018-12-24T04:07:22.948Z,4.50
2018-12-24T04:14:54.771Z,4.20
2018-12-24T04:17:22.378Z,4.30
2018-12-24T04:19:49.999Z,4.30
2018-12-24T04:22:19.107Z,4.20
2018-12-24T04:24:46.342Z,4.10
2018-12-24T04:27:12.902Z,4.30
2018-12-24T04:29:40.269Z,4.20
2018-12-24T04:34:40.776Z,3.70
2018-12-24T04:37:07.673Z,3.60
2018-12-24T04:39:34.567Z,3.70
2018-12-24T04:42:01.805Z,3.70
2018-12-24T04:44:28.479Z,3.90
2018-12-24T04:46:54.992Z,4.10
2018-12-24T04:49:21.535Z,4.10
2018-12-24T04:51:48.526Z,4.00
2018-12-24T04:54:15.139Z,3.90
2018-12-24T04:56:43.913Z,3.90
2018-12-24T04:59:10.939Z,4.00
2018-12-24T05:01:37.812Z,3.50
2018-12-24T05:04:04.723Z,3.50
2018-12-24T05:06:31.858Z,3.20
2018-12-24T05:08:58.708Z,3.40
2018-12-24T05:11:27.106Z,3.00
2018-12-24T05:13:54.794Z,3.40
2018-12-24T05:16:21.904Z,3.60
2018-12-24T05:18:49.250Z,3.80
2018-12-24T05:21:16.645Z,3.60
2018-12-24T05:23:43.398Z,3.40
2018-12-24T05:26:09.878Z,3.80
2018-12-24T05:28:36.548Z,4.10
2018-12-24T05:31:04.494Z,3.50
2018-12-24T05:33:32.194Z,3.60
2018-12-24T05:35:58.799Z,3.80
2018-12-24T05:38:25.943Z,3.60
2018-12-24T05:40:52.977Z,4.10
2018-12-24T05:43:21.207Z,4.50
2018-12-24T05:45:49.634Z,4.70
2018-12-24T05:48:16.244Z,4.80
2018-12-24T05:50:44.000Z,5.00
2018-12-24T05:53:11.072Z,5.10
2018-12-24T05:55:37.909Z,5.20
2018-12-24T05:58:04.795Z,5.30
2018-12-24T06:00:31.738Z,5.30
2018-12-24T06:03:00.616Z,5.50
2018-12-24T06:05:27.824Z,5.60
2018-12-24T06:07:54.691Z,6.00
2018-12-24T06:10:22.321Z,6.10
2018-12-24T06:12:49.945Z,6.30
2018-12-24T06:15:16.687Z,6.20
2018-12-24T06:17:44.044Z,6.20
2018-12-24T06:20:11.146Z,6.40
2018-12-24T06:22:38.748Z,6.50
2018-12-24T06:25:06.015Z,6.50
2018-12-24T06:27:34.550Z,6.50
2018-12-24T06:30:02.020Z,6.60
2018-12-24T06:32:29.461Z,6.70
2018-12-24T06:34:56.667Z,6.60
2018-12-24T06:37:24.114Z,6.70
2018-12-24T06:39:51.388Z,6.90
2018-12-24T06:42:18.716Z,6.90
2018-12-24T06:44:45.580Z,6.80
2018-12-24T06:47:12.092Z,6.70
2018-12-24T06:49:39.623Z,6.60
2018-12-24T06:52:06.846Z,6.50
2018-12-24T06:54:34.271Z,6.30
2018-12-24T06:57:01.693Z,6.20
2018-12-24T06:59:28.301Z,6.30
2018-12-24T07:01:56.184Z,6.20
2018-12-24T07:04:23.055Z,6.30
2018-12-24T07:06:50.272Z,6.10
2018-12-24T07:09:16.782Z,6.20
2018-12-24T07:11:43.373Z,6.20
2018-12-24T07:14:15.360Z,6.30
2018-12-24T07:16:39.281Z,6.30
2018-12-24T07:19:06.094Z,6.50
2018-12-24T07:21:32.754Z,6.70
2018-12-24T07:23:59.816Z,7.10
2018-12-24T07:26:26.374Z,7.30
2018-12-24T07:28:59.027Z,7.50
2018-12-24T07:31:22.424Z,7.60
2018-12-24T07:33:49.461Z,7.60
2018-12-24T07:36:16.188Z,7.70
2018-12-24T07:38:43.092Z,7.80
2018-12-24T07:41:10.667Z,7.80
2018-12-24T07:43:38.090Z,7.90
2018-12-24T07:46:04.856Z,8.10
2018-12-24T07:48:31.366Z,8.00
2018-12-24T07:50:57.817Z,8.00
2018-12-24T07:53:24.344Z,8.00
2018-12-24T07:55:50.877Z,8.00
2018-12-24T07:58:17.433Z,8.00
2018-12-24T08:00:44.046Z,7.90
2018-12-24T08:03:10.752Z,8.10
2018-12-24T08:05:37.281Z,8.20
2018-12-24T08:08:03.920Z,8.20
2018-12-24T08:10:30.479Z,8.20
2018-12-24T08:12:56.925Z,8.30
2018-12-24T08:15:23.415Z,8.20
2018-12-24T08:17:49.863Z,8.20
2018-12-24T08:20:16.488Z,8.30
2018-12-24T08:22:43.003Z,8.20
2018-12-24T08:25:09.574Z,8.40
2018-12-24T08:27:36.011Z,8.30
2018-12-24T08:30:02.472Z,8.30
2018-12-24T08:32:29.171Z,8.30
2018-12-24T08:34:59.510Z,8.30
2018-12-24T08:37:26.064Z,8.20
2018-12-24T08:39:52.527Z,8.20
2018-12-24T08:42:19.017Z,8.30
2018-12-24T08:44:58.087Z,8.30
2018-12-24T08:47:24.656Z,8.40
2018-12-24T08:49:51.200Z,8.50
2018-12-24T08:52:17.855Z,8.30
2018-12-24T08:54:48.134Z,8.40
2018-12-24T08:57:15.327Z,8.40
2018-12-24T08:59:41.845Z,8.40
2018-12-24T09:02:08.356Z,8.40
2018-12-24T09:04:37.457Z,8.40
2018-12-24T09:07:03.895Z,8.30
2018-12-24T09:09:30.447Z,8.20
2018-12-24T09:11:57.669Z,8.20
2018-12-24T09:14:24.188Z,8.20
2018-12-24T09:16:50.777Z,8.30
2018-12-24T09:19:17.526Z,8.20
2018-12-24T09:21:43.990Z,8.10
2018-12-24T09:24:10.477Z,8.10
2018-12-24T09:26:36.949Z,8.10
2018-12-24T09:29:03.411Z,8.30
2018-12-24T09:31:30.065Z,8.40
2018-12-24T09:33:56.570Z,8.10
2018-12-24T09:36:23.099Z,8.00
2018-12-24T09:38:49.582Z,8.20
2018-12-24T09:41:16.094Z,8.20
2018-12-24T09:43:42.997Z,8.10
2018-12-24T09:46:09.648Z,8.10
2018-12-24T09:48:36.108Z,8.10
2018-12-24T09:51:02.642Z,8.20
2018-12-24T09:53:29.133Z,8.20
2018-12-24T09:55:55.635Z,8.20
2018-12-24T09:58:22.082Z,8.20
2018-12-24T10:00:48.540Z,8.20
2018-12-24T10:03:14.992Z,8.30
2018-12-24T10:05:42.191Z,8.60
2018-12-24T10:08:09.357Z,8.60
2018-12-24T10:10:35.878Z,8.60
2018-12-24T10:13:02.753Z,8.60
2018-12-24T10:15:30.912Z,9.00
2018-12-24T10:17:57.366Z,9.00
2018-12-24T10:20:23.926Z,9.40
2018-12-24T10:22:50.442Z,9.40
2018-12-24T10:25:20.822Z,9.40
2018-12-24T10:27:48.437Z,9.50
2018-12-24T10:30:15.343Z,9.80
2018-12-24T10:32:41.930Z,9.60
2018-12-24T10:35:09.571Z,9.50
2018-12-24T10:37:36.215Z,9.60
2018-12-24T10:40:02.932Z,9.80
2018-12-24T10:42:30.407Z,9.90
2018-12-24T10:44:56.873Z,9.90
2018-12-24T10:47:23.386Z,9.80
2018-12-24T10:49:50.488Z,9.60
2018-12-24T10:52:16.951Z,9.70
2018-12-24T10:54:43.464Z,9.80
2018-12-24T10:57:09.904Z,9.90
2018-12-24T10:59:36.397Z,10.20
2018-12-24T11:02:03.064Z,10.40
2018-12-24T11:04:29.683Z,10.30
2018-12-24T11:06:56.432Z,10.30
2018-12-24T11:09:22.938Z,10.50
2018-12-24T11:11:49.523Z,9.80
2018-12-24T11:14:15.979Z,9.80
2018-12-24T11:16:42.511Z,9.70
2018-12-24T11:19:09.163Z,9.80
2018-12-24T11:21:35.733Z,9.70
2018-12-24T11:24:02.249Z,9.70
2018-12-24T11:26:30.658Z,10.00
2018-12-24T11:28:57.148Z,10.00
2018-12-24T11:31:23.682Z,9.90
2018-12-24T11:33:51.346Z,10.10
2018-12-24T11:36:20.635Z,9.80
2018-12-24T11:38:47.120Z,10.10
2018-12-24T11:41:13.639Z,10.00
2018-12-24T11:43:40.181Z,10.00
2018-12-24T11:46:10.405Z,9.90
2018-12-24T11:48:37.406Z,9.90
2018-12-24T11:51:03.893Z,10.10
2018-12-24T11:53:30.537Z,10.00
2018-12-24T11:55:57.004Z,10.40
2018-12-24T11:58:23.843Z,9.90
2018-12-24T12:00:50.302Z,10.00
2018-12-24T12:03:16.758Z,9.80
2018-12-24T12:05:43.254Z,10.30
2018-12-24T12:08:09.774Z,10.40
2018-12-24T12:10:36.226Z,10.00
2018-12-24T12:13:02.682Z,10.20
2018-12-24T12:15:29.269Z,10.10
2018-12-24T12:17:55.718Z,10.50
2018-12-24T12:20:22.902Z,10.40
2018-12-24T12:22:49.703Z,10.20
2018-12-24T12:25:16.396Z,9.80
2018-12-24T12:27:43.019Z,9.90
2018-12-24T12:30:09.543Z,10.00
2018-12-24T12:32:36.016Z,9.90
2018-12-24T12:35:03.629Z,9.80
2018-12-24T12:37:31.476Z,9.80
2018-12-24T12:39:58.295Z,10.00
2018-12-24T12:42:24.913Z,9.90
2018-12-24T12:44:51.415Z,9.70
2018-12-24T12:47:22.435Z,10.00
2018-12-24T12:49:51.080Z,10.10
2018-12-24T12:52:17.510Z,9.90
2018-12-24T12:54:43.998Z,9.80
2018-12-24T12:57:11.444Z,9.80
2018-12-24T12:59:38.069Z,9.90
2018-12-24T13:02:04.520Z,9.80
2018-12-24T13:04:31.015Z,10.00
2018-12-24T13:07:01.812Z,10.00
2018-12-24T13:09:29.126Z,9.80
2018-12-24T13:11:55.610Z,9.90
2018-12-24T13:14:22.126Z,10.10
2018-12-24T13:16:49.959Z,10.10
2018-12-24T13:19:16.429Z,9.90
2018-12-24T13:21:42.945Z,10.10
2018-12-24T13:24:09.536Z,10.10
2018-12-24T13:26:36.027Z,10.20
2018-12-24T13:29:02.501Z,10.20
2018-12-24T13:31:29.013Z,9.60
2018-12-24T13:33:55.638Z,9.40
2018-12-24T13:36:23.308Z,9.20
2018-12-24T13:38:50.670Z,9.40
2018-12-24T13:41:17.193Z,9.20
2018-12-24T13:43:44.644Z,9.10
2018-12-24T13:46:11.159Z,9.20
2018-12-24T13:48:37.782Z,9.30
2018-12-24T13:51:04.386Z,9.10
2018-12-24T13:53:30.934Z,9.10
2018-12-24T13:55:57.503Z,9.10
2018-12-24T13:58:24.253Z,9.20
2018-12-24T14:00:50.902Z,9.50
2018-12-24T14:03:17.412Z,9.40
2018-12-24T14:05:43.997Z,9.20
2018-12-24T14:08:10.670Z,9.20
2018-12-24T14:10:37.146Z,9.20
2018-12-24T14:13:03.633Z,9.10
2018-12-24T14:15:30.113Z,9.10
2018-12-24T14:18:01.965Z,9.20
2018-12-24T14:20:31.177Z,9.50
2018-12-24T14:22:57.646Z,9.30
2018-12-24T14:25:24.108Z,9.40
2018-12-24T14:27:51.746Z,9.20
2018-12-24T14:30:18.339Z,9.50
2018-12-24T14:32:45.599Z,9.80
2018-12-24T14:35:12.971Z,9.20
2018-12-24T14:37:41.095Z,9.30
2018-12-24T14:40:07.813Z,9.70
2018-12-24T14:42:34.350Z,10.00
2018-12-24T14:45:01.089Z,9.90
2018-12-24T14:50:04.850Z,9.80
2018-12-24T14:52:31.287Z,9.30
2018-12-24T14:54:58.147Z,9.20
2018-12-24T14:57:24.811Z,9.40
2018-12-24T14:59:53.231Z,9.00
2018-12-24T15:02:20.068Z,9.20
2018-12-24T15:04:46.511Z,9.20
2018-12-24T15:07:12.956Z,9.30
2018-12-24T15:09:39.400Z,9.00
2018-12-24T15:12:05.953Z,8.70
2018-12-24T15:14:33.035Z,8.80
2018-12-24T15:16:59.561Z,8.70
2018-12-24T15:19:26.025Z,8.40
2018-12-24T15:21:53.460Z,8.50
2018-12-24T15:24:20.062Z,9.00
2018-12-24T15:26:46.527Z,9.10
2018-12-24T15:34:34.944Z,7.90
2018-12-24T15:37:02.935Z,7.80
2018-12-24T15:42:02.952Z,7.90
2018-12-24T15:44:30.049Z,7.80
2018-12-24T15:46:57.623Z,7.90
2018-12-24T15:49:25.689Z,7.90
2018-12-24T15:51:54.417Z,7.90
2018-12-24T15:54:22.675Z,7.60
2018-12-24T15:56:50.183Z,7.60
2018-12-24T15:59:20.071Z,7.60
2018-12-24T16:01:47.862Z,8.00
2018-12-24T16:04:15.375Z,8.30
2018-12-24T16:06:43.900Z,8.40
2018-12-24T16:09:11.566Z,8.50
2018-12-24T16:11:38.943Z,8.10
2018-12-24T16:14:06.597Z,8.00
2018-12-24T16:16:35.287Z,8.20
2018-12-24T16:21:37.578Z,8.20
2018-12-24T16:24:04.361Z,8.10
2018-12-24T16:26:32.059Z,8.20
2018-12-24T16:31:34.288Z,8.00
2018-12-24T16:34:02.239Z,7.90
2018-12-24T16:36:28.711Z,8.00
2018-12-24T16:39:09.187Z,7.90
2018-12-24T16:41:40.545Z,8.00
2018-12-24T16:44:07.770Z,8.00
2018-12-24T16:46:35.926Z,8.00
2018-12-24T16:51:34.694Z,8.00
2018-12-24T16:54:02.735Z,7.80
2018-12-24T16:56:30.089Z,7.80
2018-12-24T17:02:42.864Z,7.50
2018-12-24T17:05:09.231Z,7.10
2018-12-24T17:07:35.750Z,6.90
2018-12-24T17:10:02.327Z,7.00
2018-12-24T17:12:29.604Z,7.30
2018-12-24T17:14:58.638Z,7.20
2018-12-24T17:17:27.474Z,7.50
2018-12-24T17:19:54.002Z,7.40
2018-12-24T17:22:20.536Z,7.00
2018-12-24T17:24:49.367Z,7.10
2018-12-24T17:27:15.952Z,7.40
2018-12-24T17:29:52.836Z,7.30
2018-12-24T17:32:19.376Z,7.40
2018-12-24T17:34:46.592Z,7.60
2018-12-24T17:37:15.931Z,7.60
2018-12-24T17:39:42.477Z,7.60
2018-12-24T17:42:08.983Z,7.50
2018-12-24T17:44:35.503Z,7.60
2018-12-24T17:47:02.736Z,7.70
2018-12-24T17:49:30.837Z,7.40
2018-12-24T17:52:00.015Z,7.60
2018-12-24T17:54:26.988Z,7.50
2018-12-24T17:56:56.255Z,7.40
2018-12-24T17:59:29.997Z,7.40
2018-12-24T18:01:57.085Z,7.40
2018-12-24T18:04:24.030Z,7.00
2018-12-24T18:06:54.820Z,7.00
2018-12-24T18:12:07.055Z,7.20
2018-12-24T18:14:35.737Z,7.40
2018-12-24T18:17:02.274Z,7.20
2018-12-24T18:19:30.960Z,7.30
2018-12-24T18:21:57.522Z,7.50
2018-12-24T18:24:24.095Z,7.50
2018-12-24T18:26:52.887Z,7.70
2018-12-24T18:29:21.134Z,7.80
2018-12-24T18:31:48.786Z,7.70
2018-12-24T18:34:17.600Z,7.70
2018-12-24T18:36:44.117Z,7.70
2018-12-24T18:39:11.029Z,7.70
2018-12-24T18:41:37.694Z,7.40
2018-12-24T18:44:04.321Z,7.40
2018-12-24T18:46:31.183Z,7.40
2018-12-24T18:49:00.425Z,7.10
2018-12-24T18:51:27.472Z,6.60
2018-12-24T18:53:54.105Z,6.80
2018-12-24T18:56:22.975Z,6.80
2018-12-24T18:58:51.569Z,6.70
2018-12-24T19:01:18.116Z,6.60
2018-12-24T19:03:44.730Z,6.80
2018-12-24T19:06:14.386Z,6.80
2018-12-24T19:08:40.989Z,6.40
2018-12-24T19:11:11.380Z,5.90
2018-12-24T19:13:38.483Z,5.60
2018-12-24T19:16:05.861Z,5.90
2018-12-24T19:18:32.436Z,6.10
2018-12-24T19:21:01.467Z,6.10
2018-12-24T19:23:30.530Z,6.20
2018-12-24T19:25:57.837Z,6.30
2018-12-24T19:28:24.366Z,6.30
2018-12-24T19:30:56.800Z,5.80
2018-12-24T19:33:23.695Z,5.50
2018-12-24T19:35:50.239Z,5.90
2018-12-24T19:38:18.839Z,6.00
2018-12-24T19:40:45.377Z,6.20
2018-12-24T19:43:11.855Z,6.30
2018-12-24T19:45:40.700Z,5.60
2018-12-24T19:48:09.284Z,5.10
2018-12-24T19:50:43.213Z,5.40
2018-12-24T19:53:12.369Z,5.70
2018-12-24T19:55:41.338Z,5.90
2018-12-24T19:58:08.181Z,5.40
2018-12-24T20:03:07.849Z,5.80
2018-12-24T20:05:36.745Z,5.50
2018-12-24T20:08:03.257Z,5.80
2018-12-24T20:10:29.780Z,5.90
2018-12-24T20:12:56.626Z,6.10
2018-12-24T20:15:25.215Z,6.10
2018-12-24T20:17:58.224Z,6.10
2018-12-24T20:20:19.990Z,5.80
2018-12-24T20:22:46.662Z,5.70
2018-12-24T20:25:15.264Z,5.00
2018-12-24T20:27:44.193Z,5.50
2018-12-24T20:30:13.095Z,5.80
2018-12-24T20:32:39.608Z,5.70
2018-12-24T20:35:06.147Z,5.70
2018-12-24T20:37:33.824Z,5.60
2018-12-24T20:40:02.632Z,5.50
2018-12-24T20:42:31.285Z,5.50
2018-12-24T20:44:58.868Z,5.30
2018-12-24T20:47:25.323Z,5.00
2018-12-24T20:49:51.829Z,5.00
2018-12-24T20:52:21.258Z,5.10
2018-12-24T20:54:50.390Z,5.40
2018-12-24T20:57:20.141Z,4.90
2018-12-24T20:59:46.933Z,4.80
2018-12-24T21:02:13.451Z,4.50
2018-12-24T21:04:39.970Z,4.50
2018-12-24T21:07:08.547Z,4.80
2018-12-24T21:09:38.059Z,4.80
2018-12-24T21:12:04.572Z,4.70
2018-12-24T21:14:31.188Z,4.90
2018-12-24T21:16:58.997Z,4.80
2018-12-24T21:19:27.841Z,4.30
2018-12-24T21:21:55.200Z,4.70
2018-12-24T21:24:24.038Z,4.90
2018-12-24T21:26:50.584Z,4.90
2018-12-24T21:29:19.650Z,5.00
2018-12-24T21:31:46.241Z,4.90
2018-12-24T21:34:12.809Z,5.30
2018-12-24T21:36:41.784Z,5.20
2018-12-24T21:39:10.886Z,4.80
2018-12-24T21:44:23.072Z,5.00
2018-12-24T21:46:49.930Z,5.20
2018-12-24T21:49:18.737Z,5.00
2018-12-24T21:51:48.652Z,4.40
2018-12-24T21:54:16.084Z,4.70
2018-12-24T21:56:42.817Z,4.90
2018-12-24T21:59:09.342Z,5.00
2018-12-24T22:01:36.907Z,4.90
2018-12-24T22:04:03.700Z,4.80
2018-12-24T22:06:32.312Z,4.90
2018-12-24T22:09:00.489Z,4.70
2018-12-24T22:11:27.068Z,4.40
2018-12-24T22:13:53.597Z,4.10
2018-12-24T22:16:20.174Z,3.60
2018-12-24T22:18:48.770Z,3.80
2018-12-24T22:21:17.681Z,4.00
2018-12-24T22:23:44.252Z,4.00
2018-12-24T22:26:10.710Z,3.90
2018-12-24T22:28:37.288Z,4.10
2018-12-24T22:31:03.823Z,4.30
2018-12-24T22:33:30.692Z,4.30
2018-12-24T22:35:58.333Z,4.00
2018-12-24T22:38:24.979Z,3.80
2018-12-24T22:40:51.528Z,3.40
2018-12-24T22:43:18.744Z,3.50
2018-12-24T22:45:45.270Z,3.50
2018-12-24T22:48:11.632Z,3.50
2018-12-24T22:50:38.498Z,3.10
2018-12-24T22:53:05.070Z,3.10
2018-12-24T22:55:33.870Z,3.10
2018-12-24T22:58:00.516Z,2.70
2018-12-24T23:00:27.006Z,2.90
2018-12-24T23:02:56.368Z,2.90
2018-12-24T23:05:27.762Z,2.90
2018-12-24T23:07:54.237Z,2.70
2018-12-24T23:10:20.977Z,2.90
2018-12-24T23:12:48.106Z,3.10
2018-12-24T23:15:14.917Z,2.40
2018-12-24T23:17:41.527Z,2.40
2018-12-24T23:20:08.301Z,2.40
2018-12-24T23:22:37.227Z,2.80
2018-12-24T23:25:03.730Z,2.60
2018-12-24T23:27:30.456Z,2.80
2018-12-24T23:29:57.056Z,3.10
2018-12-24T23:32:24.571Z,3.40
2018-12-24T23:34:51.177Z,3.50
2018-12-24T23:37:18.068Z,3.40
2018-12-24T23:39:46.909Z,3.30
2018-12-24T23:45:00.246Z,2.90
2018-12-24T23:47:29.094Z,3.10
2018-12-24T23:49:56.539Z,3.20
2018-12-24T23:52:35.290Z,3.30
2018-12-24T23:55:02.296Z,3.60
2018-12-24T23:57:28.949Z,3.40
2018-12-24T23:59:56.107Z,3.20
